Portada
METAR-TAF:

METAR-TAF

Aeroports :

Aneityum, Vanuatu

latitud: 20-14-57S, longitud: 169-46-17E, altitud: 2 m

Observació

L'informe es va fer fa 2 hores i 47 minuts, a les 06:00 UTC
Vent 6 kt del Est
Temperatura 23°C
Humitat 65%
Pressió 1018 hPa
Visibilitat 10 km o més
Núvols disperses a una alçada de 2000 ft

METAR: NVVA 190600Z 08006KT 9999 SCT020 23/16 Q1018

Hora: 19:47 (08:47 UTC)

Pronòstic

L'informe es va fer fa 4 hores i 17 minuts, a les 04:30 UTC
Pronòstic vàlid del 19 a les 06 UTC al 20 a les 06 UTC
Vent 8 kt del Est
Visibilitat: 9000 m
Núvols disperses a una alçada de 2000 ft
Cel ennuvolat a una alçada de 1800 ft
xàfecs de pluja

TAF: NVVA 190430Z 1906/2006 09008KT 9999 SCT020 INTER 1906/1912 9000 -SHRA BKN018

Observacions i pronòstics meteorològics de més de 4000 aeroports (METAR i TAF).

Les estacions disponibles són els punts grocs i vermells al mapa.

Posi el ratolí al punt desitjat per veure el nom de l'estació.

Feu clic per veure les observacions i els pronòstics meteorològics.

Per canviar el mapa: feu clic els botons verds amb una creu de color negre per apropar; al botó verd amb un guió per allunyar la imatge; o en les fletxes verdes per a mapes adjacents.


METAR-TAF: